Time;durP1;ratioP1;P1;durP2;ratioP2;P2;SDS_P1;SDS_P2;PMS_P1;PMS_P2;Temp;Humidity;BMP_temperature;BMP_pressure;BME280_temperature;BME280_humidity;BME280_pressure;Samples;Min_cycle;Max_cycle;Signal;HPM_P1;HPM_P2
2023/10/31 00:00:17;;;;;;;2.90;2.30;;;;;;;;;;5097468;28;20477;-67
2023/10/31 00:02:44;;;;;;;3.10;2.47;;;;;;;;;;5090248;28;20487;-68
2023/10/31 00:05:12;;;;;;;3.33;2.43;;;;;;;;;;5097867;28;21017;-68
2023/10/31 00:07:38;;;;;;;2.50;2.30;;;;;;;;;;5110174;28;20467;-68
2023/10/31 00:10:05;;;;;;;3.00;2.77;;;;;;;;;;5103257;28;20515;-68
2023/10/31 00:12:31;;;;;;;3.80;2.80;;;;;;;;;;5104761;28;20797;-68
2023/10/31 00:14:57;;;;;;;3.73;2.70;;;;;;;;;;5111015;28;20477;-67
2023/10/31 00:17:24;;;;;;;5.00;3.17;;;;;;;;;;5098505;28;20541;-68
2023/10/31 00:19:50;;;;;;;3.30;2.97;;;;;;;;;;5091585;28;20479;-66
2023/10/31 00:22:19;;;;;;;4.57;3.20;;;;;;;;;;5109970;28;20458;-67
2023/10/31 00:24:45;;;;;;;4.10;3.60;;;;;;;;;;5101301;28;20558;-67
2023/10/31 00:27:12;;;;;;;3.40;2.63;;;;;;;;;;5102706;28;20455;-67
2023/10/31 00:29:38;;;;;;;4.67;3.03;;;;;;;;;;5099625;28;20526;-66
2023/10/31 00:32:05;;;;;;;3.53;2.37;;;;;;;;;;5093958;28;20986;-67
2023/10/31 00:34:31;;;;;;;4.90;3.10;;;;;;;;;;5096741;28;20462;-66
2023/10/31 00:36:58;;;;;;;3.33;3.03;;;;;;;;;;5101881;28;20520;-67
2023/10/31 00:39:26;;;;;;;5.93;2.77;;;;;;;;;;5091390;28;20514;-67
2023/10/31 00:41:52;;;;;;;3.03;2.70;;;;;;;;;;5098927;28;20489;-67
2023/10/31 00:44:18;;;;;;;4.67;3.20;;;;;;;;;;5100941;28;20494;-66
2023/10/31 00:46:45;;;;;;;3.90;3.43;;;;;;;;;;5099243;28;20500;-66
2023/10/31 00:49:11;;;;;;;4.10;3.53;;;;;;;;;;5095434;28;20510;-66
2023/10/31 00:51:38;;;;;;;4.00;3.10;;;;;;;;;;5100964;28;20511;-66
2023/10/31 00:54:04;;;;;;;3.40;3.10;;;;;;;;;;5110270;28;20481;-66
2023/10/31 00:56:32;;;;;;;4.00;3.33;;;;;;;;;;5092729;28;20479;-66
2023/10/31 00:58:58;;;;;;;4.80;3.70;;;;;;;;;;5097805;28;20515;-66
2023/10/31 01:01:25;;;;;;;3.20;2.80;;;;;;;;;;5105670;28;20447;-67
2023/10/31 01:03:51;;;;;;;3.73;3.43;;;;;;;;;;5090240;28;20496;-67
2023/10/31 01:06:18;;;;;;;5.30;3.87;;;;;;;;;;5096410;28;20482;-67
2023/10/31 01:08:44;;;;;;;5.30;3.93;;;;;;;;;;5094954;28;20485;-67
2023/10/31 01:11:10;;;;;;;11.07;3.57;;;;;;;;;;5093448;28;20517;-67
2023/10/31 01:13:39;;;;;;;4.10;3.63;;;;;;;;;;5095268;28;20965;-67
2023/10/31 01:16:05;;;;;;;4.30;3.60;;;;;;;;;;5093664;28;20509;-66
2023/10/31 01:18:32;;;;;;;6.63;4.57;;;;;;;;;;5090095;28;20453;-67
2023/10/31 01:20:58;;;;;;;4.67;4.03;;;;;;;;;;5093535;28;21323;-67
2023/10/31 01:23:24;;;;;;;4.10;3.70;;;;;;;;;;5099272;28;20553;-67
2023/10/31 01:25:51;;;;;;;4.80;4.20;;;;;;;;;;5093025;28;20487;-67
2023/10/31 01:28:17;;;;;;;8.60;5.20;;;;;;;;;;5095798;28;20549;-67
2023/10/31 01:30:45;;;;;;;6.27;4.40;;;;;;;;;;5099668;28;20475;-67
2023/10/31 01:33:11;;;;;;;4.60;3.90;;;;;;;;;;5094377;28;21028;-67
2023/10/31 01:35:38;;;;;;;5.80;4.40;;;;;;;;;;5101605;28;20485;-67
2023/10/31 01:38:04;;;;;;;5.40;3.60;;;;;;;;;;5098924;28;20490;-67
2023/10/31 01:40:31;;;;;;;3.93;3.53;;;;;;;;;;5094736;28;20534;-67
2023/10/31 01:42:57;;;;;;;4.07;3.77;;;;;;;;;;5098373;28;20450;-67
2023/10/31 01:45:23;;;;;;;4.70;3.80;;;;;;;;;;5097396;28;20984;-67
2023/10/31 01:47:51;;;;;;;4.50;3.90;;;;;;;;;;5100182;28;20486;-66
2023/10/31 01:50:18;;;;;;;4.03;3.50;;;;;;;;;;5095051;28;20514;-67
2023/10/31 01:52:45;;;;;;;3.90;3.50;;;;;;;;;;5089863;28;20451;-67
2023/10/31 01:55:12;;;;;;;5.17;4.33;;;;;;;;;;5092380;28;20499;-66
2023/10/31 01:57:37;;;;;;;5.23;4.70;;;;;;;;;;5104171;28;20485;-67
2023/10/31 02:00:05;;;;;;;4.50;4.10;;;;;;;;;;5103628;28;20445;-66
2023/10/31 02:02:33;;;;;;;7.00;4.97;;;;;;;;;;5101748;28;20229;-67
2023/10/31 02:05:01;;;;;;;5.93;4.97;;;;;;;;;;5090120;28;20451;-67
2023/10/31 02:07:27;;;;;;;8.47;5.63;;;;;;;;;;5087074;28;20439;-66
2023/10/31 02:09:54;;;;;;;7.03;6.33;;;;;;;;;;5087263;28;20486;-67
2023/10/31 02:12:33;;;;;;;7.13;6.43;;;;;;;;;;5093633;28;20449;-67
2023/10/31 02:14:59;;;;;;;9.37;7.33;;;;;;;;;;5097548;28;20533;-67
2023/10/31 02:17:26;;;;;;;10.20;8.60;;;;;;;;;;5093987;28;20486;-66
2023/10/31 02:19:52;;;;;;;8.70;7.80;;;;;;;;;;5095635;28;20471;-67
2023/10/31 02:22:20;;;;;;;11.70;9.70;;;;;;;;;;5098595;28;20444;-68
2023/10/31 02:24:46;;;;;;;8.73;7.50;;;;;;;;;;5095916;28;20506;-65
2023/10/31 02:27:13;;;;;;;9.57;8.60;;;;;;;;;;5092311;28;20476;-66
2023/10/31 02:29:40;;;;;;;9.80;8.73;;;;;;;;;;5098953;28;20456;-66
2023/10/31 02:32:06;;;;;;;8.00;7.20;;;;;;;;;;5100140;28;21371;-66
2023/10/31 02:34:34;;;;;;;9.03;8.13;;;;;;;;;;5093507;28;20491;-66
2023/10/31 02:37:00;;;;;;;8.17;7.27;;;;;;;;;;5093651;28;20446;-66
2023/10/31 02:39:28;;;;;;;7.30;5.87;;;;;;;;;;5098231;28;20470;-66
2023/10/31 02:41:54;;;;;;;6.13;5.13;;;;;;;;;;5096407;28;20557;-65
2023/10/31 02:44:21;;;;;;;6.07;5.47;;;;;;;;;;5096193;28;20514;-65
2023/10/31 02:46:47;;;;;;;5.60;5.10;;;;;;;;;;5093088;28;20518;-65
2023/10/31 02:49:13;;;;;;;5.03;4.47;;;;;;;;;;5088526;28;20460;-66
2023/10/31 02:51:40;;;;;;;4.57;4.13;;;;;;;;;;5095224;28;20522;-66
2023/10/31 02:54:06;;;;;;;4.00;3.70;;;;;;;;;;5089727;28;21040;-66
2023/10/31 02:56:34;;;;;;;3.40;3.10;;;;;;;;;;5098778;28;20475;-66
2023/10/31 02:59:01;;;;;;;3.43;3.13;;;;;;;;;;5100343;28;21086;-66
2023/10/31 03:01:29;;;;;;;2.63;2.43;;;;;;;;;;5100885;28;20518;-66
2023/10/31 03:03:55;;;;;;;2.10;1.90;;;;;;;;;;5089104;28;20484;-66
2023/10/31 03:06:21;;;;;;;3.00;2.57;;;;;;;;;;5094627;28;20455;-67
2023/10/31 03:08:48;;;;;;;2.23;2.03;;;;;;;;;;5090711;28;20501;-67
2023/10/31 03:11:21;;;;;;;2.60;1.93;;;;;;;;;;5093580;28;20493;-67
2023/10/31 03:13:49;;;;;;;1.80;1.70;;;;;;;;;;5098386;28;20447;-67
2023/10/31 03:16:16;;;;;;;1.80;1.67;;;;;;;;;;5085378;28;20483;-67
2023/10/31 03:18:42;;;;;;;1.60;1.50;;;;;;;;;;5093163;28;20482;-66
2023/10/31 03:21:09;;;;;;;1.53;1.43;;;;;;;;;;5097345;28;20463;-67
2023/10/31 03:23:35;;;;;;;1.63;1.23;;;;;;;;;;5090787;28;20493;-65
2023/10/31 03:26:01;;;;;;;1.10;1.10;;;;;;;;;;5114410;28;20541;-68
2023/10/31 03:28:28;;;;;;;1.03;1.00;;;;;;;;;;5103540;28;20483;-66
2023/10/31 03:30:56;;;;;;;1.40;1.30;;;;;;;;;;5106273;28;20474;-67
2023/10/31 03:33:23;;;;;;;1.43;0.80;;;;;;;;;;5101470;28;20486;-66
2023/10/31 03:35:50;;;;;;;0.90;0.90;;;;;;;;;;5099026;28;20457;-66
2023/10/31 03:38:16;;;;;;;0.90;0.90;;;;;;;;;;5102695;28;20499;-66
2023/10/31 03:40:43;;;;;;;0.80;0.70;;;;;;;;;;5098399;28;20463;-66
2023/10/31 03:43:09;;;;;;;0.83;0.83;;;;;;;;;;5100772;28;20499;-67
2023/10/31 03:45:35;;;;;;;2.30;0.80;;;;;;;;;;5093529;28;20486;-66
2023/10/31 03:48:03;;;;;;;0.80;0.80;;;;;;;;;;5094205;28;21002;-66
2023/10/31 03:50:30;;;;;;;1.23;1.13;;;;;;;;;;5102224;28;20517;-66
2023/10/31 03:52:58;;;;;;;1.07;1.00;;;;;;;;;;5098963;28;20494;-66
2023/10/31 03:55:25;;;;;;;1.00;1.00;;;;;;;;;;5089778;28;20458;-66
2023/10/31 03:57:51;;;;;;;1.00;1.00;;;;;;;;;;5088784;28;20461;-65
2023/10/31 04:00:18;;;;;;;1.53;1.10;;;;;;;;;;5099411;28;20459;-66
2023/10/31 04:02:44;;;;;;;0.80;0.80;;;;;;;;;;5101145;28;20471;-66
2023/10/31 04:05:12;;;;;;;1.60;1.50;;;;;;;;;;5102851;28;20486;-66
2023/10/31 04:07:38;;;;;;;1.70;1.10;;;;;;;;;;5091391;28;20537;-67
2023/10/31 04:10:05;;;;;;;1.27;1.17;;;;;;;;;;5094633;28;20466;-66
2023/10/31 04:12:32;;;;;;;2.20;1.43;;;;;;;;;;5099704;28;20482;-67
2023/10/31 04:14:58;;;;;;;1.80;1.40;;;;;;;;;;5099053;28;20514;-66
2023/10/31 04:17:25;;;;;;;2.67;1.80;;;;;;;;;;5107638;28;20462;-67
2023/10/31 04:19:51;;;;;;;2.00;1.50;;;;;;;;;;5095599;28;20527;-66
2023/10/31 04:22:19;;;;;;;4.50;1.50;;;;;;;;;;5102709;28;20479;-66
2023/10/31 04:24:45;;;;;;;1.40;1.30;;;;;;;;;;5106510;28;20524;-66
2023/10/31 04:27:12;;;;;;;1.67;1.57;;;;;;;;;;5096563;28;20489;-66
2023/10/31 04:29:38;;;;;;;1.67;1.57;;;;;;;;;;5104003;28;20451;-66
2023/10/31 04:32:05;;;;;;;4.47;2.23;;;;;;;;;;5098711;28;20484;-66
2023/10/31 04:34:31;;;;;;;2.50;1.83;;;;;;;;;;5099763;28;20469;-66
2023/10/31 04:36:57;;;;;;;2.00;1.90;;;;;;;;;;5100849;28;20593;-66
2023/10/31 04:39:25;;;;;;;2.13;2.03;;;;;;;;;;5101518;28;20478;-66
2023/10/31 04:41:52;;;;;;;3.33;2.37;;;;;;;;;;5095296;28;20452;-66
2023/10/31 04:44:18;;;;;;;2.80;2.43;;;;;;;;;;5108859;28;20493;-66
2023/10/31 04:46:45;;;;;;;2.93;2.73;;;;;;;;;;5094404;28;20484;-66
2023/10/31 04:49:11;;;;;;;3.23;2.93;;;;;;;;;;5096136;28;20483;-65
2023/10/31 04:51:38;;;;;;;4.53;2.93;;;;;;;;;;5098735;28;20497;-65
2023/10/31 04:54:05;;;;;;;7.00;3.17;;;;;;;;;;5088156;28;20498;-64
2023/10/31 04:56:33;;;;;;;4.07;3.47;;;;;;;;;;5100026;28;20459;-65
2023/10/31 04:59:00;;;;;;;5.73;3.43;;;;;;;;;;5095664;28;20499;-65
2023/10/31 05:01:26;;;;;;;3.90;3.60;;;;;;;;;;5095165;28;20478;-65
2023/10/31 05:03:53;;;;;;;3.70;3.40;;;;;;;;;;5101122;28;20451;-65
2023/10/31 05:06:20;;;;;;;3.40;3.10;;;;;;;;;;5105334;28;20494;-65
2023/10/31 05:08:46;;;;;;;4.67;4.27;;;;;;;;;;5101984;28;20539;-65
2023/10/31 05:11:12;;;;;;;4.57;4.17;;;;;;;;;;5087317;28;20540;-65
2023/10/31 05:13:40;;;;;;;5.30;4.17;;;;;;;;;;5093485;28;20447;-65
2023/10/31 05:16:07;;;;;;;6.27;4.20;;;;;;;;;;5093737;28;20479;-65
2023/10/31 05:18:33;;;;;;;14.27;6.20;;;;;;;;;;5087181;28;20480;-65
2023/10/31 05:20:59;;;;;;;5.70;4.83;;;;;;;;;;5093214;28;20474;-66
2023/10/31 05:23:25;;;;;;;6.97;4.90;;;;;;;;;;5094837;28;20460;-66
2023/10/31 05:25:52;;;;;;;6.87;5.00;;;;;;;;;;5089703;28;20241;-66
2023/10/31 05:28:18;;;;;;;7.00;5.10;;;;;;;;;;5094086;28;20458;-66
2023/10/31 05:30:46;;;;;;;7.07;5.73;;;;;;;;;;5096807;28;21197;-65
2023/10/31 05:33:12;;;;;;;7.07;5.70;;;;;;;;;;5099444;28;20521;-65
2023/10/31 05:35:38;;;;;;;13.00;5.47;;;;;;;;;;5102022;28;20455;-65
2023/10/31 05:38:05;;;;;;;13.10;5.70;;;;;;;;;;5097710;28;20867;-65
2023/10/31 05:40:35;;;;;;;6.87;5.40;;;;;;;;;;5095242;28;21101;-65
2023/10/31 05:43:02;;;;;;;7.77;6.30;;;;;;;;;;5103215;28;20451;-65
2023/10/31 05:45:28;;;;;;;5.97;5.37;;;;;;;;;;5098466;28;20522;-65
2023/10/31 05:47:56;;;;;;;6.30;5.40;;;;;;;;;;5098342;28;20522;-65
2023/10/31 05:50:23;;;;;;;10.33;6.70;;;;;;;;;;5092513;28;20464;-66
2023/10/31 05:52:49;;;;;;;7.70;6.13;;;;;;;;;;5109507;28;20577;-65
2023/10/31 05:55:15;;;;;;;7.37;6.10;;;;;;;;;;5101981;28;20482;-65
2023/10/31 05:57:42;;;;;;;6.00;5.40;;;;;;;;;;5101551;28;20524;-66
2023/10/31 06:00:08;;;;;;;6.93;6.20;;;;;;;;;;5091125;28;20532;-66
2023/10/31 06:02:35;;;;;;;9.20;6.10;;;;;;;;;;5088017;28;20530;-61
2023/10/31 06:05:03;;;;;;;8.13;6.30;;;;;;;;;;5097184;28;20545;-66
2023/10/31 06:07:30;;;;;;;11.73;7.17;;;;;;;;;;5092111;28;20459;-67
2023/10/31 06:09:56;;;;;;;9.20;7.50;;;;;;;;;;5098428;28;20461;-69
2023/10/31 06:12:22;;;;;;;11.10;7.83;;;;;;;;;;5100286;28;20900;-67
2023/10/31 06:14:49;;;;;;;10.60;7.40;;;;;;;;;;5091514;28;20447;-67
2023/10/31 06:17:16;;;;;;;11.60;9.40;;;;;;;;;;5097694;28;20573;-67
2023/10/31 06:19:45;;;;;;;14.90;8.20;;;;;;;;;;5086340;28;20957;-67
2023/10/31 06:22:13;;;;;;;13.23;8.43;;;;;;;;;;5093780;28;20519;-68
2023/10/31 06:24:40;;;;;;;14.60;9.20;;;;;;;;;;5091888;28;20486;-67
2023/10/31 06:27:07;;;;;;;13.63;9.27;;;;;;;;;;5091570;28;20485;-67
2023/10/31 06:29:33;;;;;;;15.17;10.10;;;;;;;;;;5093875;28;20489;-68
2023/10/31 06:31:59;;;;;;;11.80;9.03;;;;;;;;;;5089391;28;21066;-68
2023/10/31 06:34:26;;;;;;;14.50;10.20;;;;;;;;;;5087967;28;20547;-68
2023/10/31 06:36:52;;;;;;;13.53;10.33;;;;;;;;;;5091927;28;20478;-70
2023/10/31 06:39:22;;;;;;;15.93;10.30;;;;;;;;;;5086092;28;20465;-69
2023/10/31 06:41:48;;;;;;;13.13;10.50;;;;;;;;;;5094651;28;20447;-67
2023/10/31 06:44:15;;;;;;;15.17;10.33;;;;;;;;;;5096140;28;20512;-67
2023/10/31 06:46:41;;;;;;;18.43;11.40;;;;;;;;;;5097733;28;20485;-66
2023/10/31 06:49:08;;;;;;;11.87;8.50;;;;;;;;;;5093374;28;20492;-67
2023/10/31 06:51:34;;;;;;;12.53;8.87;;;;;;;;;;5106826;28;20483;-68
2023/10/31 06:54:00;;;;;;;16.10;10.20;;;;;;;;;;5097116;28;20480;-68
2023/10/31 06:56:29;;;;;;;14.03;9.20;;;;;;;;;;5102034;28;20473;-68
2023/10/31 06:58:55;;;;;;;12.97;9.47;;;;;;;;;;5088429;28;20886;-69
2023/10/31 07:01:22;;;;;;;13.80;9.57;;;;;;;;;;5097857;28;20460;-68
2023/10/31 07:03:49;;;;;;;12.10;8.60;;;;;;;;;;5096689;28;20474;-68
2023/10/31 07:06:15;;;;;;;11.60;9.00;;;;;;;;;;5098255;28;20566;-69
2023/10/31 07:08:41;;;;;;;11.20;8.50;;;;;;;;;;5108680;28;20439;-68
2023/10/31 07:11:08;;;;;;;11.27;8.30;;;;;;;;;;5088435;28;20951;-68
2023/10/31 07:13:35;;;;;;;11.07;8.17;;;;;;;;;;5091407;28;21029;-67
2023/10/31 07:16:02;;;;;;;11.20;6.90;;;;;;;;;;5103508;28;20455;-67
2023/10/31 07:18:28;;;;;;;8.80;6.43;;;;;;;;;;5097148;28;20447;-67
2023/10/31 07:20:55;;;;;;;5.33;4.83;;;;;;;;;;5089974;28;20487;-68
2023/10/31 07:23:22;;;;;;;6.27;4.50;;;;;;;;;;5099521;28;20563;-68
2023/10/31 07:25:48;;;;;;;5.27;4.30;;;;;;;;;;5093051;28;20489;-68
2023/10/31 07:28:15;;;;;;;5.07;3.07;;;;;;;;;;5096238;28;20492;-68
2023/10/31 07:30:42;;;;;;;4.93;3.30;;;;;;;;;;5090270;28;20746;-68
2023/10/31 07:33:09;;;;;;;3.00;2.70;;;;;;;;;;5091957;28;20501;-68
2023/10/31 07:35:35;;;;;;;3.30;2.30;;;;;;;;;;5090326;28;20996;-68
2023/10/31 07:38:02;;;;;;;3.50;2.40;;;;;;;;;;5091703;28;20465;-68
2023/10/31 07:40:28;;;;;;;30.23;8.90;;;;;;;;;;5097639;28;20463;-68
2023/10/31 07:42:55;;;;;;;4.73;2.80;;;;;;;;;;5109051;28;20483;-68
2023/10/31 07:45:21;;;;;;;2.03;1.83;;;;;;;;;;5103833;28;20530;-68
2023/10/31 07:47:49;;;;;;;3.27;2.13;;;;;;;;;;5100770;28;20502;-68
2023/10/31 07:50:15;;;;;;;1.93;1.80;;;;;;;;;;5096397;28;20443;-68
2023/10/31 07:52:43;;;;;;;2.53;2.10;;;;;;;;;;5101645;28;20497;-68
2023/10/31 07:55:11;;;;;;;1.63;1.47;;;;;;;;;;5089904;28;20450;-68
2023/10/31 07:57:37;;;;;;;1.80;1.70;;;;;;;;;;5098601;28;20479;-64
2023/10/31 08:00:04;;;;;;;2.10;1.53;;;;;;;;;;5097502;28;20491;-66
2023/10/31 08:02:30;;;;;;;2.13;1.70;;;;;;;;;;5096860;28;20454;-65
2023/10/31 08:04:58;;;;;;;3.80;1.77;;;;;;;;;;5097910;28;20450;-66
2023/10/31 08:07:29;;;;;;;1.70;1.57;;;;;;;;;;5108125;28;20553;-67
2023/10/31 08:09:56;;;;;;;2.57;1.77;;;;;;;;;;5099940;28;20454;-67
2023/10/31 08:12:25;;;;;;;2.73;1.90;;;;;;;;;;5111504;28;21163;-66
2023/10/31 08:14:52;;;;;;;2.30;2.10;;;;;;;;;;5095035;28;20842;-67
2023/10/31 08:17:18;;;;;;;3.33;1.87;;;;;;;;;;5098046;28;20435;-65
2023/10/31 08:19:46;;;;;;;1.60;1.50;;;;;;;;;;5093718;28;21054;-66
2023/10/31 08:22:13;;;;;;;2.40;2.20;;;;;;;;;;5098375;28;20481;-66
2023/10/31 08:24:40;;;;;;;1.73;1.63;;;;;;;;;;5100738;28;20474;-68
2023/10/31 08:27:06;;;;;;;2.30;2.10;;;;;;;;;;5103330;28;20486;-66
2023/10/31 08:29:33;;;;;;;1.90;1.80;;;;;;;;;;5097754;28;20785;-66
2023/10/31 08:31:59;;;;;;;1.90;1.70;;;;;;;;;;5097887;28;20515;-67
2023/10/31 08:34:26;;;;;;;2.43;2.20;;;;;;;;;;5104725;28;20446;-66
2023/10/31 08:36:53;;;;;;;2.33;2.07;;;;;;;;;;5092022;28;20928;-69
2023/10/31 08:39:21;;;;;;;2.80;2.07;;;;;;;;;;5103776;28;20460;-68
2023/10/31 08:41:50;;;;;;;2.27;2.00;;;;;;;;;;5099974;28;20449;-70
2023/10/31 08:44:17;;;;;;;2.33;2.13;;;;;;;;;;5101121;28;20457;-72
2023/10/31 08:46:43;;;;;;;2.10;2.00;;;;;;;;;;5095238;28;20448;-73
2023/10/31 08:49:10;;;;;;;1.90;1.80;;;;;;;;;;5100609;28;20446;-71
2023/10/31 08:51:36;;;;;;;2.50;1.97;;;;;;;;;;5104099;28;20447;-70
2023/10/31 08:54:03;;;;;;;1.80;1.70;;;;;;;;;;5101054;28;20466;-72
2023/10/31 08:56:31;;;;;;;2.53;2.33;;;;;;;;;;5104041;28;20459;-70
2023/10/31 08:58:57;;;;;;;2.90;2.70;;;;;;;;;;5096258;28;20451;-71
2023/10/31 09:01:24;;;;;;;3.17;2.43;;;;;;;;;;5105421;28;20477;-73
2023/10/31 09:03:50;;;;;;;3.13;2.77;;;;;;;;;;5106591;28;20895;-67
2023/10/31 09:06:17;;;;;;;3.50;2.70;;;;;;;;;;5102079;28;20458;-73
2023/10/31 09:08:43;;;;;;;3.00;2.50;;;;;;;;;;5098156;28;20488;-70
2023/10/31 09:11:10;;;;;;;3.30;2.73;;;;;;;;;;5102205;28;20446;-74
2023/10/31 09:13:37;;;;;;;2.47;2.27;;;;;;;;;;5092695;28;20471;-71
2023/10/31 09:16:04;;;;;;;3.20;2.50;;;;;;;;;;5099258;28;20490;-71
2023/10/31 09:18:31;;;;;;;3.23;3.03;;;;;;;;;;5101629;28;20538;-70
2023/10/31 09:20:57;;;;;;;5.90;3.50;;;;;;;;;;5095982;28;20455;-69
2023/10/31 09:23:27;;;;;;;3.57;3.27;;;;;;;;;;5099150;28;20451;-69
2023/10/31 09:25:54;;;;;;;4.40;3.23;;;;;;;;;;5091341;28;20475;-67
2023/10/31 09:28:21;;;;;;;4.03;3.63;;;;;;;;;;5101376;28;21032;-72
2023/10/31 09:30:49;;;;;;;3.90;3.43;;;;;;;;;;5109360;28;20527;-71
2023/10/31 09:33:17;;;;;;;4.57;4.17;;;;;;;;;;5099850;28;20482;-71
2023/10/31 09:35:44;;;;;;;3.40;3.10;;;;;;;;;;5107040;28;20575;-70
2023/10/31 09:38:10;;;;;;;3.83;3.30;;;;;;;;;;5103347;28;20451;-70
2023/10/31 09:40:37;;;;;;;4.20;3.33;;;;;;;;;;5105759;28;20599;-68
2023/10/31 09:43:04;;;;;;;4.57;3.80;;;;;;;;;;5098498;28;20468;-68
2023/10/31 09:45:30;;;;;;;3.80;3.50;;;;;;;;;;5104870;28;20943;-67
2023/10/31 09:48:01;;;;;;;8.30;4.83;;;;;;;;;;5093804;28;20455;-68
2023/10/31 09:50:27;;;;;;;5.20;3.83;;;;;;;;;;5099955;28;20481;-67
2023/10/31 09:52:54;;;;;;;5.40;4.90;;;;;;;;;;5098314;28;20486;-68
2023/10/31 09:55:21;;;;;;;5.27;4.77;;;;;;;;;;5086509;28;20451;-68
2023/10/31 09:57:47;;;;;;;5.13;4.27;;;;;;;;;;5092708;28;21213;-70
2023/10/31 10:00:14;;;;;;;5.53;4.40;;;;;;;;;;5097003;28;20455;-68
2023/10/31 10:02:41;;;;;;;6.53;4.57;;;;;;;;;;5101114;28;20447;-69
2023/10/31 10:05:09;;;;;;;4.87;4.00;;;;;;;;;;5100390;28;20475;-69
2023/10/31 10:07:36;;;;;;;7.73;4.40;;;;;;;;;;5097069;28;20443;-70
2023/10/31 10:10:03;;;;;;;5.80;5.00;;;;;;;;;;5097847;28;20451;-70
2023/10/31 10:12:29;;;;;;;5.80;4.87;;;;;;;;;;5097744;28;20501;-70
2023/10/31 10:14:59;;;;;;;5.93;5.20;;;;;;;;;;5086415;28;20490;-72
2023/10/31 10:17:26;;;;;;;10.10;6.20;;;;;;;;;;5101658;28;20441;-70
2023/10/31 10:20:05;;;;;;;7.33;5.77;;;;;;;;;;5092504;28;20456;-71
2023/10/31 10:22:33;;;;;;;6.37;5.70;;;;;;;;;;5098435;28;20488;-70
2023/10/31 10:25:00;;;;;;;7.20;6.07;;;;;;;;;;5097583;28;20486;-70
2023/10/31 10:27:26;;;;;;;6.27;4.90;;;;;;;;;;5105293;28;20494;-69
2023/10/31 10:29:54;;;;;;;11.60;7.30;;;;;;;;;;5101427;28;20459;-70
2023/10/31 10:32:20;;;;;;;9.70;6.43;;;;;;;;;;5090222;28;20552;-71
2023/10/31 10:34:47;;;;;;;7.50;6.30;;;;;;;;;;5101468;28;20632;-72
2023/10/31 10:37:13;;;;;;;10.53;7.10;;;;;;;;;;5094973;28;20454;-69
2023/10/31 10:39:44;;;;;;;9.90;6.80;;;;;;;;;;5100590;28;20477;-70
2023/10/31 10:42:11;;;;;;;11.57;6.97;;;;;;;;;;5096162;28;20447;-72
2023/10/31 10:44:40;;;;;;;13.97;7.80;;;;;;;;;;5103006;28;20455;-68
2023/10/31 10:47:07;;;;;;;8.90;7.27;;;;;;;;;;5096871;28;20443;-66
2023/10/31 10:49:35;;;;;;;13.90;7.73;;;;;;;;;;5099067;28;20459;-66
2023/10/31 10:52:08;;;;;;;10.03;7.80;;;;;;;;;;5091191;28;20490;-70
2023/10/31 10:54:36;;;;;;;12.13;7.20;;;;;;;;;;5094606;28;20482;-70
2023/10/31 10:57:09;;;;;;;12.57;7.70;;;;;;;;;;5106068;28;20519;-73
2023/10/31 10:59:39;;;;;;;10.50;7.67;;;;;;;;;;5094277;28;20988;-70
2023/10/31 11:02:07;;;;;;;11.67;7.80;;;;;;;;;;5092433;28;20462;-68
2023/10/31 11:04:34;;;;;;;13.33;8.23;;;;;;;;;;5093807;28;20487;-69
2023/10/31 11:07:01;;;;;;;9.73;6.43;;;;;;;;;;5096935;28;20512;-67
2023/10/31 11:09:28;;;;;;;8.90;6.40;;;;;;;;;;5096761;28;20449;-68
2023/10/31 11:11:54;;;;;;;13.40;8.00;;;;;;;;;;5085948;28;20488;-68
2023/10/31 11:14:23;;;;;;;11.33;8.20;;;;;;;;;;5087774;28;20494;-66
2023/10/31 11:16:52;;;;;;;10.13;7.67;;;;;;;;;;5094080;28;20493;-65
2023/10/31 11:19:19;;;;;;;9.43;7.50;;;;;;;;;;5092762;28;20447;-66
2023/10/31 11:21:55;;;;;;;10.80;7.90;;;;;;;;;;5096792;28;20427;-65
2023/10/31 11:24:22;;;;;;;10.70;7.87;;;;;;;;;;5092980;28;20479;-65
2023/10/31 11:26:51;;;;;;;9.87;7.67;;;;;;;;;;5099632;28;20459;-66
2023/10/31 11:29:18;;;;;;;12.50;6.70;;;;;;;;;;5098578;28;20458;-66
2023/10/31 11:31:47;;;;;;;9.73;7.33;;;;;;;;;;5097945;28;20795;-66
2023/10/31 11:34:16;;;;;;;10.13;7.47;;;;;;;;;;5093517;28;20486;-65
2023/10/31 11:36:42;;;;;;;8.57;7.60;;;;;;;;;;5098347;28;20448;-65
2023/10/31 11:39:14;;;;;;;11.13;8.40;;;;;;;;;;5097911;28;20451;-66
2023/10/31 11:41:40;;;;;;;9.13;6.60;;;;;;;;;;5092282;28;20489;-65
2023/10/31 11:44:06;;;;;;;10.83;8.60;;;;;;;;;;5098694;28;20478;-65
2023/10/31 11:46:33;;;;;;;9.03;7.40;;;;;;;;;;5106799;28;20458;-65
2023/10/31 11:49:02;;;;;;;11.23;8.00;;;;;;;;;;5104836;28;20461;-65
2023/10/31 11:51:28;;;;;;;7.90;7.00;;;;;;;;;;5106876;28;20529;-66
2023/10/31 11:53:55;;;;;;;9.40;7.47;;;;;;;;;;5104832;28;20943;-66
2023/10/31 11:56:21;;;;;;;10.67;8.13;;;;;;;;;;5100859;28;20983;-64
2023/10/31 11:58:55;;;;;;;9.57;7.33;;;;;;;;;;5091735;28;20449;-64
2023/10/31 12:01:22;;;;;;;10.93;7.97;;;;;;;;;;5087166;28;20480;-65
2023/10/31 12:03:49;;;;;;;9.67;8.67;;;;;;;;;;5095297;28;20454;-63
2023/10/31 12:06:18;;;;;;;9.07;7.90;;;;;;;;;;5101386;28;20450;-65
2023/10/31 12:08:47;;;;;;;11.13;7.60;;;;;;;;;;5108769;28;20438;-66
2023/10/31 12:11:15;;;;;;;9.40;7.87;;;;;;;;;;5109805;28;20481;-65
2023/10/31 12:13:42;;;;;;;7.90;7.10;;;;;;;;;;5106260;28;20575;-65
2023/10/31 12:16:10;;;;;;;8.33;7.53;;;;;;;;;;5102664;28;20462;-66
2023/10/31 12:18:38;;;;;;;14.00;9.03;;;;;;;;;;5099355;28;20451;-65
2023/10/31 12:21:07;;;;;;;8.20;7.07;;;;;;;;;;5097576;28;20457;-66
2023/10/31 12:23:35;;;;;;;10.43;7.57;;;;;;;;;;5092260;28;20458;-66
2023/10/31 12:26:01;;;;;;;8.33;7.10;;;;;;;;;;5105540;28;20929;-66
2023/10/31 12:28:28;;;;;;;10.17;7.30;;;;;;;;;;5102615;28;20438;-64
2023/10/31 12:30:55;;;;;;;9.23;7.63;;;;;;;;;;5103437;28;20452;-65
2023/10/31 12:33:24;;;;;;;4.37;3.40;;;;;;;;;;5102177;28;20474;-65
2023/10/31 12:35:51;;;;;;;7.90;7.10;;;;;;;;;;5092930;28;20470;-68
2023/10/31 12:38:18;;;;;;;8.43;7.60;;;;;;;;;;5102652;28;20457;-65
2023/10/31 12:40:46;;;;;;;8.27;7.37;;;;;;;;;;5113580;28;20439;-65
2023/10/31 12:43:13;;;;;;;9.40;7.43;;;;;;;;;;5107914;28;20447;-66
2023/10/31 12:45:40;;;;;;;7.87;7.03;;;;;;;;;;5102202;28;20462;-64
2023/10/31 12:48:08;;;;;;;8.47;7.07;;;;;;;;;;5110052;28;20441;-64
2023/10/31 12:50:36;;;;;;;8.63;6.70;;;;;;;;;;5107299;28;20458;-64
2023/10/31 12:53:03;;;;;;;9.00;7.23;;;;;;;;;;5103382;28;20457;-65
2023/10/31 12:55:38;;;;;;;11.97;7.97;;;;;;;;;;5095631;28;20458;-64
2023/10/31 12:58:06;;;;;;;8.20;7.00;;;;;;;;;;5103704;28;20454;-65
2023/10/31 13:00:33;;;;;;;9.67;7.40;;;;;;;;;;5096438;28;20511;-65
2023/10/31 13:03:00;;;;;;;10.83;8.00;;;;;;;;;;5093185;28;20501;-63
2023/10/31 13:05:27;;;;;;;9.17;7.40;;;;;;;;;;5112897;28;20483;-64
2023/10/31 13:07:55;;;;;;;9.67;7.30;;;;;;;;;;5091719;28;20451;-71
2023/10/31 13:10:22;;;;;;;10.80;7.50;;;;;;;;;;5087041;28;20479;-71
2023/10/31 13:12:49;;;;;;;8.70;7.80;;;;;;;;;;5091215;28;20943;-71
2023/10/31 13:15:18;;;;;;;12.93;7.20;;;;;;;;;;5103047;28;20486;-73
2023/10/31 13:17:44;;;;;;;8.80;7.57;;;;;;;;;;5098805;28;20478;-71
2023/10/31 13:20:11;;;;;;;9.07;8.03;;;;;;;;;;5098532;28;20475;-69
2023/10/31 13:22:38;;;;;;;10.27;8.67;;;;;;;;;;5096224;28;20427;-70
2023/10/31 13:25:07;;;;;;;10.97;8.40;;;;;;;;;;5107678;28;20876;-71
2023/10/31 13:27:35;;;;;;;11.33;9.10;;;;;;;;;;5099193;28;20459;-73
2023/10/31 13:30:01;;;;;;;12.33;9.40;;;;;;;;;;5112280;28;20514;-69
2023/10/31 13:32:29;;;;;;;11.40;10.20;;;;;;;;;;5094261;28;21135;-70
2023/10/31 13:34:55;;;;;;;11.10;8.93;;;;;;;;;;5097869;28;20475;-74
2023/10/31 13:37:22;;;;;;;10.17;9.07;;;;;;;;;;5096217;28;20447;-73
2023/10/31 13:39:48;;;;;;;9.83;8.70;;;;;;;;;;5099857;28;20446;-70
2023/10/31 13:42:15;;;;;;;13.33;9.97;;;;;;;;;;5093203;28;20454;-70
2023/10/31 13:44:41;;;;;;;10.20;8.63;;;;;;;;;;5093830;28;20466;-71
2023/10/31 13:47:09;;;;;;;11.63;9.10;;;;;;;;;;5096034;28;20460;-71
2023/10/31 13:49:37;;;;;;;10.13;9.00;;;;;;;;;;5096912;28;20454;-71
2023/10/31 13:52:05;;;;;;;9.90;8.70;;;;;;;;;;5106541;28;20455;-74
2023/10/31 13:54:31;;;;;;;12.47;8.93;;;;;;;;;;5106101;28;20485;-76
2023/10/31 13:56:58;;;;;;;10.37;9.07;;;;;;;;;;5096935;28;20484;-74
2023/10/31 13:59:24;;;;;;;11.67;8.83;;;;;;;;;;5101021;28;20456;-74
2023/10/31 14:01:51;;;;;;;13.77;9.50;;;;;;;;;;5102425;28;20495;-74
2023/10/31 14:04:20;;;;;;;11.70;9.60;;;;;;;;;;5097396;28;20489;-72
2023/10/31 14:06:48;;;;;;;13.47;9.63;;;;;;;;;;5103022;28;20957;-71
2023/10/31 14:09:14;;;;;;;11.73;8.93;;;;;;;;;;5104894;28;20463;-72
2023/10/31 14:11:41;;;;;;;10.60;8.60;;;;;;;;;;5090599;28;20474;-71
2023/10/31 14:14:10;;;;;;;12.50;9.47;;;;;;;;;;5101988;28;20562;-71
2023/10/31 14:16:36;;;;;;;14.40;9.33;;;;;;;;;;5095928;28;20516;-74
2023/10/31 14:19:03;;;;;;;11.13;9.63;;;;;;;;;;5091727;28;20544;-71
2023/10/31 14:21:30;;;;;;;16.87;10.40;;;;;;;;;;5093218;28;20458;-71
2023/10/31 14:23:57;;;;;;;10.23;8.50;;;;;;;;;;5092358;28;20487;-73
2023/10/31 14:26:24;;;;;;;11.43;9.57;;;;;;;;;;5099600;28;21409;-74
2023/10/31 14:28:51;;;;;;;12.07;8.47;;;;;;;;;;5099964;28;20447;-72
2023/10/31 14:31:17;;;;;;;16.30;10.63;;;;;;;;;;5098087;28;20928;-70
2023/10/31 14:33:44;;;;;;;13.60;10.30;;;;;;;;;;5096367;28;20860;-71
2023/10/31 14:36:12;;;;;;;12.80;10.00;;;;;;;;;;5093676;28;20514;-70